Time;durP1;ratioP1;P1;durP2;ratioP2;P2;SDS_P1;SDS_P2;PMS_P1;PMS_P2;Temp;Humidity;BMP_temperature;BMP_pressure;BME280_temperature;BME280_humidity;BME280_pressure;Samples;Min_cycle;Max_cycle;Signal;HPM_P1;HPM_P2
2024/01/23 00:00:11;;;;;;;1.40;0.90;;;18.30;37.70;;;;;;5020514;28;20226;-68
2024/01/23 00:02:37;;;;;;;2.70;1.20;;;18.30;38.50;;;;;;5023583;28;20219;-71
2024/01/23 00:05:03;;;;;;;1.40;1.10;;;18.40;37.80;;;;;;5031006;28;20979;-71
2024/01/23 00:07:28;;;;;;;1.13;1.00;;;18.30;37.70;;;;;;5026713;28;20470;-71
2024/01/23 00:09:54;;;;;;;1.40;0.90;;;18.30;37.70;;;;;;5033098;28;20250;-70
2024/01/23 00:12:20;;;;;;;1.80;0.90;;;18.30;37.70;;;;;;5022415;28;20939;-67
2024/01/23 00:14:45;;;;;;;1.07;0.90;;;18.30;37.70;;;;;;5025507;28;20289;-68
2024/01/23 00:17:11;;;;;;;2.13;1.30;;;18.30;37.70;;;;;;5027973;28;20218;-70
2024/01/23 00:19:36;;;;;;;1.00;0.90;;;18.30;38.30;;;;;;5020473;28;20680;-68
2024/01/23 00:22:02;;;;;;;2.03;1.50;;;18.30;37.70;;;;;;5017384;28;20310;-71
2024/01/23 00:24:28;;;;;;;1.60;1.00;;;18.30;37.70;;;;;;5038045;28;20214;-68
2024/01/23 00:26:53;;;;;;;1.47;0.90;;;18.30;37.70;;;;;;5028566;28;20234;-68
2024/01/23 00:29:19;;;;;;;1.10;1.00;;;18.30;37.70;;;;;;5026990;28;20233;-68
2024/01/23 00:31:44;;;;;;;1.40;0.93;;;18.30;37.70;;;;;;5026548;28;20227;-68
2024/01/23 00:34:11;;;;;;;1.30;1.10;;;18.30;37.70;;;;;;5023185;28;20370;-68
2024/01/23 00:36:36;;;;;;;1.43;0.90;;;18.30;37.70;;;;;;5022324;28;20220;-68
2024/01/23 00:39:02;;;;;;;1.53;0.90;;;18.30;37.70;;;;;;5027532;28;20529;-69
2024/01/23 00:41:28;;;;;;;1.40;0.97;;;18.30;37.70;;;;;;5025559;28;20223;-68
2024/01/23 00:43:53;;;;;;;1.17;0.70;;;18.30;37.70;;;;;;5023704;28;20698;-70
2024/01/23 00:46:19;;;;;;;1.00;0.90;;;18.30;37.70;;;;;;5035215;28;20218;-67
2024/01/23 00:48:44;;;;;;;1.47;1.00;;;18.30;37.70;;;;;;5021941;28;20226;-68
2024/01/23 00:51:11;;;;;;;1.10;0.80;;;18.30;37.70;;;;;;5030330;28;20244;-67
2024/01/23 00:53:37;;;;;;;1.40;0.90;;;18.30;37.70;;;;;;5041510;28;20241;-69
2024/01/23 00:56:02;;;;;;;1.20;0.90;;;18.30;37.70;;;;;;5018256;28;20545;-67
2024/01/23 00:58:28;;;;;;;1.13;0.90;;;18.30;37.70;;;;;;5027796;28;20224;-70
2024/01/23 01:00:53;;;;;;;0.90;0.80;;;18.30;37.70;;;;;;5027992;28;20235;-67
2024/01/23 01:03:19;;;;;;;1.80;1.00;;;18.30;37.70;;;;;;5030271;28;20218;-70
2024/01/23 01:05:45;;;;;;;0.90;0.77;;;18.30;37.70;;;;;;5056871;28;20245;-68
2024/01/23 01:08:12;;;;;;;3.17;1.10;;;18.30;37.70;;;;;;5032880;28;20229;-67
2024/01/23 01:10:37;;;;;;;1.13;1.03;;;18.30;37.70;;;;;;5022885;28;20443;-70
2024/01/23 01:13:03;;;;;;;2.30;1.73;;;18.30;37.70;;;;;;5023502;28;20436;-71
2024/01/23 01:15:29;;;;;;;0.97;0.80;;;18.30;37.70;;;;;;5021711;28;20231;-70
2024/01/23 01:17:54;;;;;;;1.63;0.90;;;18.30;37.70;;;;;;5024219;28;20277;-71
2024/01/23 01:20:20;;;;;;;1.23;0.80;;;18.30;37.70;;;;;;5016804;28;20218;-71
2024/01/23 01:22:45;;;;;;;0.90;0.80;;;18.30;37.70;;;;;;5037416;28;20237;-71
2024/01/23 01:25:11;;;;;;;1.33;1.00;;;18.30;37.90;;;;;;5002204;28;20219;-71
2024/01/23 01:27:36;;;;;;;1.20;1.00;;;18.30;37.70;;;;;;5023026;28;20733;-70
2024/01/23 01:30:04;;;;;;;1.40;1.30;;;18.30;37.80;;;;;;5031162;28;20218;-70
2024/01/23 01:32:30;;;;;;;0.90;0.80;;;18.30;37.70;;;;;;5041058;28;20236;-71
2024/01/23 01:34:55;;;;;;;1.17;0.97;;;18.30;37.70;;;;;;5033764;28;20448;-70
2024/01/23 01:37:21;;;;;;;1.47;0.90;;;18.30;37.70;;;;;;5027806;28;21224;-71
2024/01/23 01:39:46;;;;;;;1.83;0.80;;;18.30;37.70;;;;;;5020594;28;20301;-71
2024/01/23 01:42:12;;;;;;;1.27;0.93;;;18.30;37.70;;;;;;5022772;28;20218;-71
2024/01/23 01:44:37;;;;;;;1.60;0.83;;;18.30;37.70;;;;;;5024034;28;20225;-71
2024/01/23 01:47:03;;;;;;;1.00;0.90;;;18.30;37.70;;;;;;5032186;28;20246;-70
2024/01/23 01:49:29;;;;;;;0.90;0.77;;;18.30;37.80;;;;;;5038824;28;20225;-70
2024/01/23 01:51:56;;;;;;;0.90;0.80;;;18.30;37.90;;;;;;5035908;28;20651;-71
2024/01/23 01:54:23;;;;;;;1.30;1.17;;;18.30;37.90;;;;;;5016057;28;20487;-72
2024/01/23 01:56:52;;;;;;;1.10;1.00;;;18.20;37.70;;;;;;5028875;28;20550;-67
2024/01/23 01:59:20;;;;;;;2.00;1.00;;;18.30;37.80;;;;;;5023396;28;20473;-67
2024/01/23 02:01:46;;;;;;;1.50;1.40;;;18.20;37.80;;;;;;5016597;28;20443;-70
2024/01/23 02:04:12;;;;;;;1.10;0.70;;;18.30;37.90;;;;;;5039261;28;20436;-70
2024/01/23 02:06:38;;;;;;;1.20;0.90;;;18.30;38.70;;;;;;5030828;28;20225;-70
2024/01/23 02:09:04;;;;;;;0.93;0.73;;;18.20;37.80;;;;;;5030796;28;20476;-70
2024/01/23 02:11:30;;;;;;;2.33;2.23;;;18.30;38.00;;;;;;5015301;28;21697;-71
2024/01/23 02:13:56;;;;;;;2.37;0.90;;;18.30;38.00;;;;;;5027440;28;20221;-70
2024/01/23 02:16:22;;;;;;;1.20;0.90;;;18.30;38.10;;;;;;5021854;28;21212;-70
2024/01/23 02:18:47;;;;;;;1.20;0.93;;;18.30;38.00;;;;;;5028024;28;20421;-70
2024/01/23 02:21:14;;;;;;;1.27;0.90;;;18.30;38.10;;;;;;5031506;28;20434;-71
2024/01/23 02:23:42;;;;;;;1.30;1.10;;;18.30;38.00;;;;;;5032917;28;20218;-72
2024/01/23 02:26:07;;;;;;;1.33;0.83;;;18.30;38.10;;;;;;5031186;28;20491;-70
2024/01/23 02:28:33;;;;;;;1.50;0.97;;;18.30;38.10;;;;;;5036676;28;20879;-69
2024/01/23 02:30:58;;;;;;;0.90;0.70;;;18.30;38.10;;;;;;5023941;28;20321;-72
2024/01/23 02:33:24;;;;;;;0.80;0.70;;;18.30;38.10;;;;;;5036513;28;20233;-72
2024/01/23 02:35:49;;;;;;;1.07;0.83;;;18.30;38.20;;;;;;5013653;28;20285;-72
2024/01/23 02:38:15;;;;;;;2.30;2.00;;;18.30;38.20;;;;;;5020631;28;20218;-72
2024/01/23 02:40:40;;;;;;;1.20;0.80;;;18.30;38.20;;;;;;5023409;28;21066;-71
2024/01/23 02:43:06;;;;;;;1.07;0.97;;;18.30;38.20;;;;;;5027447;28;20681;-72
2024/01/23 02:45:32;;;;;;;1.00;0.70;;;18.30;38.20;;;;;;5017635;28;20280;-71
2024/01/23 02:47:58;;;;;;;1.27;0.90;;;18.30;38.30;;;;;;5029951;28;20687;-72
2024/01/23 02:50:23;;;;;;;1.20;0.90;;;18.30;38.30;;;;;;5030479;28;20230;-71
2024/01/23 02:52:49;;;;;;;1.20;0.90;;;18.30;39.10;;;;;;5035276;28;20222;-72
2024/01/23 02:55:15;;;;;;;1.17;1.00;;;18.30;38.30;;;;;;5019164;28;20654;-72
2024/01/23 02:57:40;;;;;;;2.00;1.00;;;18.30;38.30;;;;;;5021324;28;20265;-72
2024/01/23 03:00:08;;;;;;;2.33;0.97;;;18.30;38.40;;;;;;5021327;28;20242;-71
2024/01/23 03:02:33;;;;;;;4.00;1.10;;;18.30;38.30;;;;;;5024748;28;20273;-70
2024/01/23 03:04:59;;;;;;;1.40;0.87;;;18.30;38.30;;;;;;5026302;28;21011;-71
2024/01/23 03:07:24;;;;;;;0.93;0.70;;;18.30;38.40;;;;;;5019443;28;20237;-70
2024/01/23 03:09:50;;;;;;;0.80;0.80;;;18.30;38.40;;;;;;5026643;28;21028;-73
2024/01/23 03:12:23;;;;;;;1.07;0.80;;;18.30;38.40;;;;;;5019219;28;20245;-72
2024/01/23 03:14:50;;;;;;;1.10;0.80;;;18.30;38.40;;;;;;5015661;28;20595;-71
2024/01/23 03:17:16;;;;;;;1.27;0.80;;;18.30;38.40;;;;;;5017587;28;20453;-71
2024/01/23 03:19:43;;;;;;;1.23;1.13;;;18.30;38.50;;;;;;5020069;28;20450;-71
2024/01/23 03:22:09;;;;;;;1.20;0.90;;;18.30;38.40;;;;;;5015468;28;20804;-72
2024/01/23 03:24:39;;;;;;;0.90;0.80;;;18.30;38.30;;;;;;5029164;28;20528;-73
2024/01/23 03:27:07;;;;;;;2.27;0.90;;;18.30;38.30;;;;;;5023727;28;20958;-72
2024/01/23 03:29:41;;;;;;;2.93;0.80;;;18.30;38.30;;;;;;5030297;28;20768;-72
2024/01/23 03:32:07;;;;;;;1.20;1.10;;;18.30;38.40;;;;;;5022422;28;20530;-70
2024/01/23 03:34:33;;;;;;;1.10;0.80;;;18.30;38.40;;;;;;5037140;28;20422;-70
2024/01/23 03:37:02;;;;;;;0.87;0.87;;;18.30;38.30;;;;;;5030687;28;20541;-70
2024/01/23 03:39:28;;;;;;;1.10;0.70;;;18.30;38.40;;;;;;5025887;28;20280;-70
2024/01/23 03:41:54;;;;;;;1.27;0.93;;;18.30;38.30;;;;;;5027034;28;20944;-72
2024/01/23 03:44:23;;;;;;;1.10;1.00;;;18.30;38.40;;;;;;5029867;28;20466;-71
2024/01/23 03:46:49;;;;;;;1.27;0.70;;;18.30;38.30;;;;;;5025653;28;20318;-71
2024/01/23 03:49:15;;;;;;;0.90;0.80;;;18.30;38.30;;;;;;5026475;28;20442;-71
2024/01/23 03:51:40;;;;;;;1.80;0.70;;;18.30;38.30;;;;;;5020644;28;20231;-70
2024/01/23 03:54:06;;;;;;;0.90;0.77;;;18.30;38.30;;;;;;5026922;28;21937;-70
2024/01/23 03:56:31;;;;;;;1.00;0.80;;;18.30;38.30;;;;;;5037776;28;20233;-71
2024/01/23 03:58:57;;;;;;;1.43;1.00;;;18.30;38.30;;;;;;5029151;28;20228;-71
2024/01/23 04:01:22;;;;;;;0.90;0.70;;;18.30;38.40;;;;;;5020712;28;20681;-71
2024/01/23 04:03:48;;;;;;;1.07;0.80;;;18.30;38.40;;;;;;5026197;28;20224;-71
2024/01/23 04:06:14;;;;;;;1.10;0.80;;;18.30;38.30;;;;;;5032649;28;20250;-71
2024/01/23 04:08:39;;;;;;;1.07;0.80;;;18.30;38.80;;;;;;5040472;28;20299;-71
2024/01/23 04:11:05;;;;;;;1.33;1.20;;;18.30;38.30;;;;;;5019279;28;20307;-71
2024/01/23 04:13:30;;;;;;;1.20;0.90;;;18.30;38.30;;;;;;5029209;28;20822;-72
2024/01/23 04:15:56;;;;;;;0.90;0.70;;;18.30;38.30;;;;;;5020962;28;20231;-71
2024/01/23 04:18:21;;;;;;;0.90;0.70;;;18.30;38.30;;;;;;5023460;28;20238;-71
2024/01/23 04:20:47;;;;;;;1.57;1.27;;;18.20;38.20;;;;;;5030768;28;20768;-71
2024/01/23 04:23:13;;;;;;;1.63;0.80;;;18.30;38.30;;;;;;5019168;28;20548;-70
2024/01/23 04:25:38;;;;;;;1.10;0.73;;;18.30;38.30;;;;;;5023260;28;20225;-72
2024/01/23 04:28:04;;;;;;;1.30;0.80;;;18.30;38.30;;;;;;5037325;28;20231;-71
2024/01/23 04:30:29;;;;;;;1.00;0.70;;;18.30;38.30;;;;;;5025839;28;20246;-71
2024/01/23 04:32:55;;;;;;;1.50;0.90;;;18.30;38.30;;;;;;5022758;28;20595;-71
2024/01/23 04:35:22;;;;;;;1.10;0.90;;;18.30;38.20;;;;;;5031372;28;20283;-71
2024/01/23 04:37:47;;;;;;;1.00;0.90;;;18.30;38.20;;;;;;5022708;28;20291;-71
2024/01/23 04:40:13;;;;;;;1.00;0.90;;;18.30;38.20;;;;;;5032126;28;20442;-71
2024/01/23 04:42:39;;;;;;;4.20;1.30;;;18.30;38.30;;;;;;5031615;28;20586;-70
2024/01/23 04:45:07;;;;;;;0.80;0.67;;;18.30;38.20;;;;;;5025702;28;20226;-71
2024/01/23 04:47:32;;;;;;;0.93;0.80;;;18.30;38.20;;;;;;5029050;28;20227;-71
2024/01/23 04:49:58;;;;;;;0.93;0.70;;;18.30;38.20;;;;;;5033446;28;20451;-70
2024/01/23 04:52:23;;;;;;;1.30;0.80;;;18.30;38.20;;;;;;5024629;28;20211;-69
2024/01/23 04:54:49;;;;;;;1.97;0.83;;;18.30;38.20;;;;;;5034132;28;20233;-70
2024/01/23 04:57:14;;;;;;;1.00;0.80;;;18.30;38.10;;;;;;5029225;28;20772;-70
2024/01/23 04:59:40;;;;;;;0.70;0.60;;;18.30;38.10;;;;;;5037519;28;20277;-70
2024/01/23 05:02:06;;;;;;;1.00;0.70;;;18.30;38.10;;;;;;5017277;28;20222;-71
2024/01/23 05:04:31;;;;;;;1.50;0.60;;;18.30;38.10;;;;;;5032758;28;20692;-71
2024/01/23 05:06:57;;;;;;;0.80;0.80;;;18.30;38.10;;;;;;5020468;28;20366;-71
2024/01/23 05:09:22;;;;;;;1.00;0.90;;;18.30;38.00;;;;;;5020945;28;20253;-72
2024/01/23 05:11:48;;;;;;;1.13;1.03;;;18.40;38.10;;;;;;5014838;28;20690;-69
2024/01/23 05:14:17;;;;;;;0.80;0.80;;;18.40;38.10;;;;;;5019869;28;20221;-69
2024/01/23 05:16:43;;;;;;;0.80;0.60;;;18.40;38.30;;;;;;5024795;28;20225;-70
2024/01/23 05:19:09;;;;;;;0.90;0.70;;;18.40;38.00;;;;;;5032085;28;20901;-70
2024/01/23 05:21:34;;;;;;;0.80;0.70;;;18.40;37.80;;;;;;5028843;28;20469;-73
2024/01/23 05:24:02;;;;;;;0.90;0.70;;;18.40;37.80;;;;;;5021957;28;20925;-72
2024/01/23 05:26:28;;;;;;;1.00;0.70;;;18.40;37.80;;;;;;5010497;28;20240;-72
2024/01/23 05:28:54;;;;;;;0.97;0.73;;;18.40;37.80;;;;;;5015862;28;20422;-71
2024/01/23 05:31:19;;;;;;;1.30;1.00;;;18.40;37.80;;;;;;5029263;28;20233;-70
2024/01/23 05:33:45;;;;;;;1.63;0.77;;;18.50;37.90;;;;;;5035693;28;20233;-70
2024/01/23 05:36:10;;;;;;;1.20;0.90;;;18.50;37.90;;;;;;5018672;28;20337;-71
2024/01/23 05:38:36;;;;;;;1.07;0.97;;;18.50;37.90;;;;;;5024053;28;20267;-71
2024/01/23 05:41:03;;;;;;;1.00;0.70;;;18.50;37.90;;;;;;5019528;28;20222;-71
2024/01/23 05:43:28;;;;;;;0.80;0.60;;;18.50;37.90;;;;;;5026763;28;20796;-71
2024/01/23 05:45:54;;;;;;;1.47;0.60;;;18.50;37.90;;;;;;5015246;28;20430;-71
2024/01/23 05:48:19;;;;;;;0.90;0.80;;;18.50;37.90;;;;;;5034357;28;20287;-71
2024/01/23 05:50:45;;;;;;;1.20;1.00;;;18.50;37.90;;;;;;5031054;28;20222;-71
2024/01/23 05:53:11;;;;;;;2.33;0.80;;;18.50;37.90;;;;;;5029018;28;20225;-70
2024/01/23 05:55:36;;;;;;;0.70;0.60;;;18.50;37.90;;;;;;5034214;28;20268;-69
2024/01/23 05:58:02;;;;;;;0.73;0.63;;;18.50;37.90;;;;;;5028964;28;20368;-70
2024/01/23 06:00:27;;;;;;;1.23;0.70;;;18.50;37.90;;;;;;5012010;28;20265;-70
2024/01/23 06:02:53;;;;;;;0.80;0.70;;;18.50;37.90;;;;;;5020127;28;20582;-73
2024/01/23 06:05:19;;;;;;;1.40;0.90;;;18.50;37.90;;;;;;5009149;28;20292;-75
2024/01/23 06:07:49;;;;;;;1.10;0.70;;;18.50;37.90;;;;;;5016296;28;20686;-71
2024/01/23 06:10:16;;;;;;;1.57;0.80;;;18.50;37.90;;;;;;5034040;28;20430;-70
2024/01/23 06:12:41;;;;;;;1.10;0.60;;;18.50;37.90;;;;;;5017178;28;20789;-72
2024/01/23 06:15:07;;;;;;;1.47;0.80;;;18.50;37.90;;;;;;5012159;28;20430;-70
2024/01/23 06:17:33;;;;;;;1.00;0.80;;;18.50;37.90;;;;;;5008031;28;20231;-71
2024/01/23 06:20:01;;;;;;;2.00;0.83;;;18.50;37.90;;;;;;5012946;28;20456;-70
2024/01/23 06:22:27;;;;;;;2.40;0.90;;;18.50;37.90;;;;;;5022338;28;20257;-71
2024/01/23 06:25:06;;;;;;;1.10;1.00;;;18.50;37.90;;;;;;5026025;28;20465;-70
2024/01/23 06:27:32;;;;;;;1.00;0.70;;;18.50;37.90;;;;;;5021891;28;20214;-70
2024/01/23 06:29:58;;;;;;;1.10;0.90;;;18.50;37.90;;;;;;5035109;28;20493;-70
2024/01/23 06:32:24;;;;;;;0.90;0.90;;;18.50;38.00;;;;;;5019276;28;20613;-70
2024/01/23 06:34:53;;;;;;;0.97;0.87;;;18.50;37.90;;;;;;5024806;28;20269;-70
2024/01/23 06:37:19;;;;;;;1.13;0.90;;;18.50;37.90;;;;;;5019886;28;20507;-69
2024/01/23 06:39:46;;;;;;;0.80;0.70;;;18.50;37.90;;;;;;5018250;28;20497;-70
2024/01/23 06:42:11;;;;;;;2.80;2.00;;;18.50;37.90;;;;;;5014511;28;20509;-69
2024/01/23 06:44:38;;;;;;;2.20;0.80;;;18.50;37.90;;;;;;5026039;28;21003;-70
2024/01/23 06:47:03;;;;;;;1.30;0.80;;;18.50;37.90;;;;;;5027899;28;20281;-69
2024/01/23 06:49:29;;;;;;;0.90;0.70;;;18.50;37.90;;;;;;5037712;28;20475;-70
2024/01/23 06:51:54;;;;;;;1.20;1.07;;;18.50;37.90;;;;;;5022018;28;20229;-70
2024/01/23 06:54:20;;;;;;;1.00;0.83;;;18.50;37.90;;;;;;5028893;28;20226;-69
2024/01/23 06:56:46;;;;;;;1.83;0.77;;;18.50;37.90;;;;;;5023591;28;20973;-70
2024/01/23 06:59:12;;;;;;;5.07;0.87;;;18.50;37.90;;;;;;5025078;28;20249;-70
2024/01/23 07:01:38;;;;;;;1.00;0.90;;;18.50;37.90;;;;;;5032207;28;20445;-70
2024/01/23 07:04:04;;;;;;;1.70;1.00;;;18.50;37.90;;;;;;5041435;28;20277;-70
2024/01/23 07:06:29;;;;;;;1.10;0.80;;;18.50;37.90;;;;;;5022461;28;20996;-70
2024/01/23 07:08:55;;;;;;;1.30;0.80;;;18.50;37.90;;;;;;5026135;28;20950;-70
2024/01/23 07:11:21;;;;;;;0.80;0.67;;;18.50;37.90;;;;;;5020105;28;20227;-69
2024/01/23 07:13:47;;;;;;;0.80;0.70;;;18.50;37.90;;;;;;5028426;28;20364;-70
2024/01/23 07:16:12;;;;;;;1.67;0.90;;;18.50;37.90;;;;;;5025212;28;20944;-69
2024/01/23 07:18:38;;;;;;;0.97;0.77;;;18.50;37.90;;;;;;5038005;28;20425;-70
2024/01/23 07:21:04;;;;;;;1.27;0.97;;;18.50;37.90;;;;;;5031940;28;20287;-69
2024/01/23 07:23:30;;;;;;;1.37;0.90;;;18.50;37.90;;;;;;5027442;28;20235;-69
2024/01/23 07:25:56;;;;;;;1.83;1.10;;;18.50;37.90;;;;;;5022505;28;20423;-69
2024/01/23 07:28:22;;;;;;;1.00;0.70;;;18.50;38.60;;;;;;5023060;28;20219;-70
2024/01/23 07:30:47;;;;;;;2.03;1.13;;;18.50;37.90;;;;;;5026551;28;20931;-71
2024/01/23 07:33:13;;;;;;;1.27;0.70;;;18.50;37.90;;;;;;5029073;28;20284;-70
2024/01/23 07:35:38;;;;;;;0.90;0.70;;;18.50;37.90;;;;;;5037364;28;20226;-70
2024/01/23 07:38:05;;;;;;;1.57;0.80;;;18.50;37.90;;;;;;5025131;28;20226;-70
2024/01/23 07:40:30;;;;;;;1.30;0.80;;;18.50;37.90;;;;;;5018080;28;21772;-69
2024/01/23 07:42:56;;;;;;;1.10;1.00;;;18.50;37.90;;;;;;5023108;28;20433;-71
2024/01/23 07:45:21;;;;;;;1.20;0.80;;;18.50;37.90;;;;;;5018752;28;20344;-69
2024/01/23 07:47:47;;;;;;;1.03;0.90;;;18.50;37.90;;;;;;5031312;28;20831;-70
2024/01/23 07:50:13;;;;;;;1.53;0.90;;;18.50;37.90;;;;;;5019319;28;20273;-69
2024/01/23 07:52:38;;;;;;;1.00;0.90;;;18.50;37.90;;;;;;5029767;28;20221;-69
2024/01/23 07:55:04;;;;;;;1.70;0.97;;;18.50;37.90;;;;;;5031077;28;20272;-69
2024/01/23 07:57:30;;;;;;;0.80;0.80;;;18.50;37.90;;;;;;5038664;28;20223;-69
2024/01/23 07:59:56;;;;;;;1.00;0.77;;;18.50;37.90;;;;;;5034576;28;20322;-68
2024/01/23 08:02:21;;;;;;;1.27;0.90;;;18.50;38.60;;;;;;5021173;28;20234;-69
2024/01/23 08:04:48;;;;;;;1.03;0.90;;;18.50;37.90;;;;;;5030431;28;20459;-69
2024/01/23 08:07:14;;;;;;;1.20;1.10;;;18.50;37.90;;;;;;5045456;28;20642;-70
2024/01/23 08:09:39;;;;;;;1.50;1.10;;;18.50;37.90;;;;;;5031127;28;20479;-70
2024/01/23 08:12:06;;;;;;;1.43;1.10;;;18.50;37.90;;;;;;5032691;28;20675;-71
2024/01/23 08:14:31;;;;;;;2.27;0.90;;;18.50;37.90;;;;;;5035466;28;20698;-70
2024/01/23 08:16:57;;;;;;;1.07;0.90;;;18.50;37.90;;;;;;5028396;28;20437;-69
2024/01/23 08:19:23;;;;;;;1.00;0.90;;;18.50;37.90;;;;;;5022636;28;20277;-69
2024/01/23 08:21:49;;;;;;;1.20;1.10;;;18.50;37.90;;;;;;5027960;28;20717;-71
2024/01/23 08:24:15;;;;;;;1.17;0.70;;;18.50;37.90;;;;;;5020801;28;20498;-71
2024/01/23 08:26:41;;;;;;;1.00;0.90;;;18.50;37.90;;;;;;5024617;28;20297;-69
2024/01/23 08:29:07;;;;;;;1.50;0.93;;;18.50;37.90;;;;;;5036446;28;20234;-71
2024/01/23 08:31:33;;;;;;;1.30;0.83;;;18.50;37.90;;;;;;5015692;28;20234;-70
2024/01/23 08:33:59;;;;;;;1.33;0.90;;;18.50;37.90;;;;;;5026495;28;20447;-70
2024/01/23 08:36:24;;;;;;;1.47;1.17;;;18.50;37.90;;;;;;5016799;28;20228;-69
2024/01/23 08:38:50;;;;;;;1.53;1.10;;;18.50;37.90;;;;;;5031462;28;20230;-71
2024/01/23 08:41:15;;;;;;;1.00;0.90;;;18.50;37.90;;;;;;5022144;28;20649;-71
2024/01/23 08:43:41;;;;;;;1.20;0.80;;;18.50;37.90;;;;;;5016492;28;20225;-70
2024/01/23 08:46:07;;;;;;;1.40;1.20;;;18.50;37.90;;;;;;5024360;28;20233;-71
2024/01/23 08:48:32;;;;;;;1.33;0.93;;;18.50;37.90;;;;;;5022932;28;20264;-68
2024/01/23 08:50:58;;;;;;;1.47;0.80;;;18.50;37.90;;;;;;5056618;28;20228;-71
2024/01/23 08:53:24;;;;;;;2.30;0.90;;;18.50;37.90;;;;;;5029752;28;20595;-69
2024/01/23 08:55:49;;;;;;;1.87;1.10;;;18.50;37.90;;;;;;5019517;28;20223;-70
2024/01/23 08:58:17;;;;;;;1.00;0.80;;;18.50;37.90;;;;;;5030904;28;20804;-71
2024/01/23 09:00:42;;;;;;;1.20;0.90;;;18.50;37.90;;;;;;5013407;28;20716;-70
2024/01/23 09:03:08;;;;;;;1.30;1.03;;;18.50;37.90;;;;;;5030950;28;20471;-70
2024/01/23 09:05:34;;;;;;;0.90;0.70;;;18.50;38.00;;;;;;5024633;28;20238;-70
2024/01/23 09:07:59;;;;;;;0.90;0.80;;;18.50;37.90;;;;;;5019513;28;20277;-70
2024/01/23 09:10:25;;;;;;;1.10;1.00;;;18.50;37.90;;;;;;5031882;28;20281;-70
2024/01/23 09:12:50;;;;;;;1.50;0.90;;;18.50;37.90;;;;;;5028395;28;20345;-71
2024/01/23 09:15:16;;;;;;;0.90;0.80;;;18.50;37.90;;;;;;5022756;28;20697;-70
2024/01/23 09:17:41;;;;;;;1.77;1.10;;;18.50;37.90;;;;;;5018444;28;20234;-71
2024/01/23 09:20:08;;;;;;;1.37;1.00;;;18.50;37.90;;;;;;5020140;28;20211;-70
2024/01/23 09:22:33;;;;;;;1.30;0.83;;;18.50;37.90;;;;;;5016344;28;20233;-71
2024/01/23 09:24:59;;;;;;;1.00;0.90;;;18.50;37.90;;;;;;5015391;28;20952;-70
2024/01/23 09:27:25;;;;;;;1.13;0.90;;;18.50;37.90;;;;;;5017217;28;20210;-71
2024/01/23 09:29:51;;;;;;;0.90;0.83;;;18.50;37.90;;;;;;5028402;28;20856;-70
2024/01/23 09:32:16;;;;;;;1.73;1.27;;;18.50;37.90;;;;;;5029661;28;20214;-69
2024/01/23 09:34:42;;;;;;;0.80;0.70;;;18.50;37.90;;;;;;5029592;28;20218;-70
2024/01/23 09:37:07;;;;;;;1.47;0.87;;;18.50;38.00;;;;;;5028358;28;20297;-69
2024/01/23 09:39:33;;;;;;;1.57;0.90;;;18.50;37.90;;;;;;5016622;28;20263;-69
2024/01/23 09:42:02;;;;;;;1.00;0.80;;;18.50;37.90;;;;;;5035594;28;20222;-68
2024/01/23 09:44:27;;;;;;;1.93;1.00;;;18.50;37.90;;;;;;5033159;28;20675;-70
2024/01/23 09:46:53;;;;;;;1.40;1.00;;;18.50;37.90;;;;;;5032492;28;20458;-71
2024/01/23 09:49:20;;;;;;;1.70;0.80;;;18.50;37.90;;;;;;5025266;28;20260;-69
2024/01/23 09:51:47;;;;;;;1.87;1.00;;;18.50;38.60;;;;;;5033226;28;20455;-71
2024/01/23 09:54:14;;;;;;;1.73;0.90;;;18.50;37.90;;;;;;5035739;28;20848;-71
2024/01/23 09:56:42;;;;;;;1.20;1.00;;;18.50;37.90;;;;;;5021951;28;20495;-71
2024/01/23 09:59:10;;;;;;;0.90;0.80;;;18.50;37.90;;;;;;5022391;28;20527;-72
2024/01/23 10:01:37;;;;;;;0.80;0.63;;;18.50;37.90;;;;;;5015072;28;20477;-71
2024/01/23 10:04:04;;;;;;;1.00;0.90;;;18.50;37.90;;;;;;5040666;28;20866;-69
2024/01/23 10:06:33;;;;;;;1.17;0.83;;;18.50;38.00;;;;;;5024032;28;21084;-70
2024/01/23 10:09:00;;;;;;;1.07;0.90;;;18.50;37.90;;;;;;5026031;28;20464;-71
2024/01/23 10:11:32;;;;;;;0.93;0.70;;;18.50;37.90;;;;;;5023497;28;20443;-71
2024/01/23 10:14:01;;;;;;;1.40;1.10;;;18.50;37.90;;;;;;5060799;28;20993;-71
2024/01/23 10:16:27;;;;;;;1.07;0.83;;;18.50;37.90;;;;;;5018559;28;20427;-71
2024/01/23 10:18:53;;;;;;;0.80;0.70;;;18.50;37.90;;;;;;5027101;28;20844;-70
2024/01/23 10:21:22;;;;;;;1.73;1.00;;;18.50;38.00;;;;;;5029390;28;20217;-72
2024/01/23 10:23:51;;;;;;;1.00;0.80;;;18.50;37.90;;;;;;5024556;28;20254;-71
2024/01/23 10:26:18;;;;;;;1.10;0.83;;;18.50;37.90;;;;;;5001120;28;20434;-72
2024/01/23 10:28:43;;;;;;;1.20;1.10;;;18.50;37.90;;;;;;5034838;28;20450;-72
2024/01/23 10:31:10;;;;;;;1.10;0.70;;;18.50;37.90;;;;;;5009686;28;20457;-70
2024/01/23 10:33:37;;;;;;;1.30;0.80;;;18.50;37.90;;;;;;5024519;28;20218;-71
2024/01/23 10:36:09;;;;;;;0.90;0.80;;;18.50;37.90;;;;;;5024224;28;20537;-69
2024/01/23 10:38:35;;;;;;;1.00;0.90;;;18.50;37.90;;;;;;5024768;28;20472;-71
2024/01/23 10:41:04;;;;;;;0.90;0.80;;;18.50;37.90;;;;;;5026682;28;20418;-71
2024/01/23 10:43:30;;;;;;;1.10;0.80;;;18.50;37.90;;;;;;5017247;28;20867;-72
2024/01/23 10:45:58;;;;;;;0.80;0.80;;;18.60;38.00;;;;;;5021807;28;20545;-70
2024/01/23 10:48:24;;;;;;;1.60;0.90;;;18.50;37.90;;;;;;5020907;28;21483;-71
2024/01/23 10:50:54;;;;;;;2.30;0.73;;;18.60;38.00;;;;;;5014962;28;20464;-70
2024/01/23 10:53:22;;;;;;;1.87;1.07;;;18.60;38.00;;;;;;5024538;28;20819;-70
2024/01/23 10:55:48;;;;;;;1.63;0.90;;;18.60;38.00;;;;;;5019568;28;20435;-70
2024/01/23 10:58:35;;;;;;;1.70;1.40;;;18.60;38.00;;;;;;5020509;28;21040;-69
2024/01/23 11:01:01;;;;;;;0.90;0.80;;;18.60;38.00;;;;;;5018602;28;20435;-70
2024/01/23 11:03:27;;;;;;;1.10;0.83;;;18.60;38.00;;;;;;5024212;28;20447;-71
2024/01/23 11:05:59;;;;;;;1.10;0.80;;;18.60;38.00;;;;;;5019813;28;20998;-70
2024/01/23 11:08:30;;;;;;;1.07;0.80;;;18.60;38.00;;;;;;5034936;28;20252;-71
2024/01/23 11:11:04;;;;;;;1.17;0.80;;;18.60;38.00;;;;;;5014878;28;20435;-70
2024/01/23 11:13:38;;;;;;;1.10;0.70;;;18.60;38.00;;;;;;5015665;28;20447;-71
2024/01/23 11:16:06;;;;;;;1.20;0.90;;;18.60;38.00;;;;;;5010026;28;20480;-70
2024/01/23 11:18:32;;;;;;;1.00;0.67;;;18.60;38.00;;;;;;5020663;28;20455;-71
2024/01/23 11:21:21;;;;;;;1.30;1.00;;;18.60;38.00;;;;;;5022986;28;20484;-71
2024/01/23 11:23:58;;;;;;;1.47;1.00;;;18.60;38.00;;;;;;5015780;28;20950;-71
2024/01/23 11:26:26;;;;;;;1.60;0.83;;;18.60;38.00;;;;;;5017367;28;20439;-69
2024/01/23 11:28:59;;;;;;;1.10;0.80;;;18.60;38.00;;;;;;5019817;28;20439;-70
2024/01/23 11:31:27;;;;;;;0.87;0.80;;;18.60;38.00;;;;;;5029784;28;20430;-70
2024/01/23 11:34:13;;;;;;;2.17;1.10;;;18.60;38.00;;;;;;5023923;28;20459;-70
2024/01/23 11:36:39;;;;;;;1.00;0.80;;;18.60;38.00;;;;;;5026431;28;21342;-72
2024/01/23 11:39:13;;;;;;;1.00;0.90;;;18.60;38.00;;;;;;5012751;28;20428;-71
2024/01/23 11:41:39;;;;;;;1.40;0.90;;;18.60;38.00;;;;;;5023970;28;20225;-71
2024/01/23 11:44:14;;;;;;;1.10;1.00;;;18.60;38.00;;;;;;5022566;28;20479;-70
2024/01/23 11:46:43;;;;;;;1.00;0.80;;;18.60;38.00;;;;;;5021077;28;20271;-70
2024/01/23 11:49:10;;;;;;;1.03;0.93;;;18.60;38.00;;;;;;5035302;28;20801;-71
2024/01/23 11:51:37;;;;;;;1.40;0.80;;;18.60;38.00;;;;;;5021383;28;20459;-70
2024/01/23 11:54:09;;;;;;;1.13;1.00;;;18.60;38.00;;;;;;5032939;28;20925;-71
2024/01/23 11:56:38;;;;;;;2.20;1.00;;;18.60;38.00;;;;;;5029546;28;20459;-71
2024/01/23 11:59:04;;;;;;;1.37;0.90;;;18.60;38.00;;;;;;5023978;28;20502;-69
2024/01/23 12:01:31;;;;;;;1.13;0.90;;;18.60;38.00;;;;;;5036929;28;20520;-70
2024/01/23 12:03:57;;;;;;;1.30;0.70;;;18.60;38.00;;;;;;5020762;28;20306;-70
2024/01/23 12:06:23;;;;;;;1.27;1.17;;;18.60;38.00;;;;;;5040715;28;20453;-70
2024/01/23 12:08:50;;;;;;;1.87;1.00;;;18.60;38.00;;;;;;5025408;28;21922;-70
2024/01/23 12:11:17;;;;;;;0.97;0.87;;;18.60;38.00;;;;;;5040009;28;20434;-69
2024/01/23 12:13:48;;;;;;;1.50;1.00;;;18.60;38.00;;;;;;5026019;28;20461;-69
2024/01/23 12:16:15;;;;;;;1.10;0.90;;;18.60;38.00;;;;;;5027628;28;20954;-70
2024/01/23 12:18:41;;;;;;;1.30;1.20;;;18.60;38.00;;;;;;5021577;28;20434;-70
2024/01/23 12:21:07;;;;;;;1.30;1.10;;;18.60;38.00;;;;;;5034420;28;20526;-70
2024/01/23 12:23:34;;;;;;;1.30;1.20;;;18.60;38.00;;;;;;5019876;28;20442;-68
2024/01/23 12:25:59;;;;;;;1.40;1.07;;;18.60;38.00;;;;;;5012047;28;20454;-69
2024/01/23 12:28:29;;;;;;;1.83;1.30;;;18.60;38.00;;;;;;5032341;28;21327;-69
2024/01/23 12:30:54;;;;;;;1.13;1.00;;;18.60;38.00;;;;;;5026607;28;20280;-70
2024/01/23 12:33:20;;;;;;;1.57;1.47;;;18.60;38.00;;;;;;5030285;28;21009;-70
2024/01/23 12:35:48;;;;;;;1.10;1.00;;;18.60;38.00;;;;;;5020257;28;20226;-69
2024/01/23 12:38:18;;;;;;;1.10;1.00;;;18.60;38.00;;;;;;5063347;28;20254;-69
2024/01/23 12:40:44;;;;;;;1.50;1.13;;;18.60;38.00;;;;;;5014886;28;20442;-70
2024/01/23 12:43:10;;;;;;;1.10;1.00;;;18.60;38.00;;;;;;5023648;28;20838;-70